Aeroporto :
LOGIN :

Iscrizione | Disclaimer

   EN    FR    IT 

 










Sommario :    VFR   VFR Marginale   IFR   IFR Intensivo   IFR Molto Intensivo
Visibilità : 
Base nubi : 
>= 8 km
>= 3000ft
5 / 8 km
1000 / 3000 ft
1500m / 5 km
500 / 1000 ft
800 / 1500m
200 / 500 ft
< 800m
< 200 ft
Simboli :   Temporali  Nebbia  Neve Forte  Precipitazioni Forti  Vento > 20 kt
SIGMETs :   Varie  Temporali  Ghiacco  Turbolenza  Onda orograficha  Ceneri Vulcaniche







- Altitudine del aeroporto : 203 ft
- Codice IATA : XMJ
- Carte del aeroporto


LFBM - Mont-De-Marsan

ULTIMO METAR :
  • 221830Z AUTO VRB02KT CAVOK 23/09 Q1017

METARs OBSOLETI :
  • 221800Z AUTO 12004KT CAVOK 23/10 Q1017
  • 221730Z AUTO 09004KT 030V140 CAVOK 24/11 Q1017
  • 221700Z AUTO 08004KT 010V120 CAVOK 25/11 Q1017
  • 221630Z AUTO 04007KT 360V110 CAVOK 24/11 Q1017 NOSIG
  • 221600Z AUTO VRB04KT CAVOK 25/12 Q1017 NOSIG
  • 221530Z AUTO VRB04KT CAVOK 25/10 Q1017 NOSIG

TAF TAF LFBM
Valido dal 22 a 15 ore il 23 a 15 ore UTC


221400Z 2215/2315 VRB02KT CAVOK
Nessun NOTAM noto per questo aeroporto.



MetMap, La meteo Aeronautica in un colpo d'occhio ! - Copyright ORBIFLY Dicembre 2007 - Disclaimer

ORBIFLY MET'MAP TEAM :

Programmazione e sviluppo : Alexandra Zaïnal
Concezione e sviluppo : Baudouin d'Aumeries
Co-Programmazione e sviluppo : Marc-Olivier Méhu
Supporto tecnico e logistico : Manuel Goepfert
Aiuto per la traduzione : Arnaldo La Scala

Contatto : metmap@orbifly.com




FONTI E CREDITI :

   NOAA